Aérodrome :
LOGIN :

S'inscrire | Disclaimer

   EN    FR    IT 

 










Légende :    VFR   VFR Marginal   IFR   IFR Intensif   IFR Très Intensif
Visi : 
Plafond : 
>= 8 km
>= 3000ft
5 à 8 km
1000 à 3000 ft
1500m à 5 km
500 à 1000 ft
800 à 1500m
200 à 500 ft
< 800m
< 200 ft
Symboles :   Orages  Brouillard  Fortes neiges  Fortes précipitations  Vent > 20 kt
SIGMETs :   Divers  Orages  Givrage  Turbulence  Onde Orograph.  Cendres Volcan.






- Altitude de l'aérodrome : 3 ft
- Code IATA : DHR


EHKD - Den Helder De Kooy

DERNIER METAR :
  • 210155Z AUTO 19006KT 7000 BR BKN087 02/01 Q1042 WHT

METARs EXPIRÉS :
  • 210146Z AUTO 19007KT 7000 BR SCT087 01/01 Q1042 WHT
  • 210125Z AUTO 18005KT 9999 NCD 02/01 Q1042 BLU
  • 210055Z AUTO 21005KT 180V240 9999 NCD 03/02 Q1042 BLU
  • 210025Z AUTO 23006KT 9999 NCD 05/04 Q1043 BLU
  • 202355Z AUTO 23006KT 9999 NCD 05/04 Q1043 BLU
  • 202325Z AUTO 23005KT 9999 NCD 03/02 Q1043 BLU

TAF TAF EHKD
Valide du 21 à 02h jusqu'au 21 à 14h UTC


210135Z 2102/2114 24007KT CAVOK
BECMG 2102/2105 4000 BR
BECMG 2105/2107 26011KT 3000 BKN007
BECMG 2110/2112 7000 NSW BKN018



MET'MAP, la Météo Aéronautique d'un coup d'oeil ! - Copyright ORBIFLY Décembre 2007 - Disclaimer

ORBIFLY MET'MAP TEAM :

Programmation & Développement : Alexandra Zaïnal
Sur une idée originale de : Baudouin d'Aumeries
Assistance à la programmation : Marc-Olivier Méhu
Soutien technique & logistique : Manuel Goepfert

Contact : metmap@orbifly.com




SOURCES & CREDITS :

   NOAA